createdAt,value
2018-12-01T00:01:15.193Z,100498.40
2018-12-01T00:03:42.571Z,100497.86
2018-12-01T00:06:10.034Z,100495.62
2018-12-01T00:08:38.078Z,100507.05
2018-12-01T00:11:05.768Z,100507.48
2018-12-01T00:13:33.395Z,100509.84
2018-12-01T00:16:00.886Z,100511.02
2018-12-01T00:18:28.596Z,100511.20
2018-12-01T00:20:55.938Z,100504.17
2018-12-01T00:23:23.364Z,100505.52
2018-12-01T00:25:51.666Z,100508.97
2018-12-01T00:28:19.080Z,100502.05
2018-12-01T00:30:46.618Z,100499.15
2018-12-01T00:33:14.065Z,100500.38
2018-12-01T00:35:41.896Z,100495.56
2018-12-01T00:38:09.282Z,100487.72
2018-12-01T00:40:36.657Z,100493.14
2018-12-01T00:43:04.068Z,100494.41
2018-12-01T00:45:31.420Z,100498.16
2018-12-01T00:47:58.872Z,100501.17
2018-12-01T00:50:26.382Z,100502.20
2018-12-01T00:52:53.907Z,100502.05
2018-12-01T00:55:21.547Z,100508.14
2018-12-01T00:57:49.142Z,100506.61
2018-12-01T01:00:24.155Z,100496.66
2018-12-01T01:02:54.401Z,100504.95
2018-12-01T01:05:22.990Z,100500.58
2018-12-01T01:07:50.465Z,100502.11
2018-12-01T01:10:18.467Z,100506.58
2018-12-01T01:12:46.261Z,100505.92
2018-12-01T01:15:14.479Z,100509.36
2018-12-01T01:17:42.043Z,100509.57
2018-12-01T01:20:12.716Z,100507.48
2018-12-01T01:22:40.821Z,100504.47
2018-12-01T01:25:08.905Z,100504.59
2018-12-01T01:27:36.467Z,100509.22
2018-12-01T01:30:11.281Z,100509.16
2018-12-01T01:32:38.720Z,100510.63
2018-12-01T01:35:06.559Z,100516.16
2018-12-01T01:37:33.922Z,100523.09
2018-12-01T01:40:01.313Z,100516.44
2018-12-01T01:42:28.708Z,100515.84
2018-12-01T01:44:56.023Z,100521.98
2018-12-01T01:47:23.528Z,100514.45
2018-12-01T01:49:50.992Z,100516.79
2018-12-01T01:52:18.314Z,100520.15
2018-12-01T01:54:45.822Z,100523.41
2018-12-01T01:57:13.642Z,100523.56
2018-12-01T01:59:41.170Z,100519.45
2018-12-01T02:02:08.689Z,100515.63
2018-12-01T02:04:36.290Z,100512.39
2018-12-01T02:07:04.039Z,100517.48
2018-12-01T02:09:31.505Z,100516.95
2018-12-01T02:11:58.947Z,100515.75
2018-12-01T02:14:26.328Z,100514.84
2018-12-01T02:16:53.727Z,100509.47
2018-12-01T02:19:21.190Z,100507.50
2018-12-01T02:21:48.559Z,100500.38
2018-12-01T02:24:16.017Z,100494.58
2018-12-01T02:26:43.491Z,100494.25
2018-12-01T02:29:10.834Z,100495.48
2018-12-01T02:31:38.279Z,100501.18
2018-12-01T02:34:05.773Z,100500.91
2018-12-01T02:36:33.210Z,100498.22
2018-12-01T02:39:00.579Z,100502.73
2018-12-01T02:41:27.986Z,100500.50
2018-12-01T02:44:06.874Z,100507.48
2018-12-01T02:46:45.704Z,100506.79
2018-12-01T02:49:13.090Z,100513.19
2018-12-01T02:51:40.680Z,100515.80
2018-12-01T02:54:08.163Z,100516.52
2018-12-01T02:56:35.714Z,100515.53
2018-12-01T02:59:03.161Z,100521.43
2018-12-01T03:01:30.508Z,100512.85
2018-12-01T03:03:57.972Z,100517.20
2018-12-01T03:06:28.238Z,100516.83
2018-12-01T03:08:55.752Z,100524.95
2018-12-01T03:11:23.096Z,100521.44
2018-12-01T03:13:50.423Z,100517.06
2018-12-01T03:16:17.836Z,100522.80
2018-12-01T03:18:46.267Z,100513.14
2018-12-01T03:21:13.651Z,100517.09
2018-12-01T03:23:41.727Z,100511.34
2018-12-01T03:26:09.037Z,100508.85
2018-12-01T03:28:36.585Z,100514.49
2018-12-01T03:31:04.014Z,100515.70
2018-12-01T03:33:31.377Z,100514.56
2018-12-01T03:35:58.883Z,100520.72
2018-12-01T03:38:26.255Z,100517.84
2018-12-01T03:40:53.610Z,100523.80
2018-12-01T03:43:20.974Z,100521.42
2018-12-01T03:45:48.522Z,100518.53
2018-12-01T03:48:15.947Z,100516.55
2018-12-01T03:50:43.452Z,100511.82
2018-12-01T03:53:11.715Z,100515.77
2018-12-01T03:55:39.167Z,100523.14
2018-12-01T03:58:06.676Z,100525.78
2018-12-01T04:00:34.860Z,100524.67
2018-12-01T04:03:03.835Z,100527.12
2018-12-01T04:05:31.565Z,100524.75
2018-12-01T04:07:59.053Z,100526.94
2018-12-01T04:10:26.467Z,100531.44
2018-12-01T04:12:54.400Z,100531.67
2018-12-01T04:15:21.791Z,100526.09
2018-12-01T04:17:49.185Z,100520.62
2018-12-01T04:20:16.534Z,100519.91
2018-12-01T04:22:44.051Z,100524.06
2018-12-01T04:25:11.591Z,100517.80
2018-12-01T04:27:39.038Z,100527.85
2018-12-01T04:30:15.637Z,100526.60
2018-12-01T04:32:42.994Z,100526.59
2018-12-01T04:35:15.168Z,100524.08
2018-12-01T04:37:42.869Z,100530.25
2018-12-01T04:40:10.320Z,100535.07
2018-12-01T04:42:37.682Z,100540.94
2018-12-01T04:45:06.354Z,100539.41
2018-12-01T04:47:33.698Z,100538.51
2018-12-01T04:50:01.032Z,100540.80
2018-12-01T04:52:28.544Z,100547.06
2018-12-01T04:54:56.000Z,100548.92
2018-12-01T04:57:23.498Z,100545.63
2018-12-01T04:59:50.912Z,100534.55
2018-12-01T05:02:18.308Z,100541.52
2018-12-01T05:04:45.986Z,100544.69
2018-12-01T05:07:13.452Z,100551.95
2018-12-01T05:09:40.786Z,100555.42
2018-12-01T05:12:08.145Z,100553.00
2018-12-01T05:14:35.514Z,100544.17
2018-12-01T05:17:04.663Z,100545.23
2018-12-01T05:19:32.085Z,100546.88
2018-12-01T05:21:59.572Z,100551.73
2018-12-01T05:24:27.006Z,100552.86
2018-12-01T05:26:54.379Z,100553.92
2018-12-01T05:29:21.867Z,100551.41
2018-12-01T05:31:49.247Z,100556.05
2018-12-01T05:34:16.767Z,100562.22
2018-12-01T05:36:44.116Z,100556.89
2018-12-01T05:39:11.591Z,100558.81
2018-12-01T05:41:39.039Z,100558.80
2018-12-01T05:44:06.379Z,100564.23
2018-12-01T05:46:33.841Z,100561.84
2018-12-01T05:49:01.233Z,100566.39
2018-12-01T05:51:28.555Z,100565.02
2018-12-01T05:53:55.931Z,100571.12
2018-12-01T05:56:23.293Z,100566.84
2018-12-01T05:58:50.685Z,100566.98
2018-12-01T06:01:18.105Z,100566.21
2018-12-01T06:03:45.718Z,100567.62
2018-12-01T06:06:13.704Z,100571.33
2018-12-01T06:08:41.090Z,100570.59
2018-12-01T06:11:09.406Z,100567.58
2018-12-01T06:13:36.805Z,100559.00
2018-12-01T06:16:04.144Z,100566.86
2018-12-01T06:18:31.472Z,100571.91
2018-12-01T06:20:58.848Z,100572.92
2018-12-01T06:23:26.160Z,100573.90
2018-12-01T06:25:53.549Z,100573.58
2018-12-01T06:28:20.873Z,100573.38
2018-12-01T06:30:48.268Z,100577.27
2018-12-01T06:33:15.611Z,100575.77
2018-12-01T06:35:43.038Z,100570.92
2018-12-01T06:38:10.436Z,100576.88
2018-12-01T06:40:37.782Z,100582.94
2018-12-01T06:43:05.641Z,100585.98
2018-12-01T06:45:33.078Z,100580.97
2018-12-01T06:48:00.531Z,100585.30
2018-12-01T06:50:27.883Z,100581.48
2018-12-01T06:52:55.225Z,100584.52
2018-12-01T06:55:23.695Z,100586.39
2018-12-01T06:57:51.032Z,100584.53
2018-12-01T07:00:20.610Z,100580.51
2018-12-01T07:02:48.339Z,100582.94
2018-12-01T07:05:16.357Z,100579.28
2018-12-01T07:07:44.260Z,100584.97
2018-12-01T07:10:12.775Z,100589.14
2018-12-01T07:12:41.602Z,100589.27
2018-12-01T07:15:11.219Z,100590.73
2018-12-01T07:17:38.652Z,100594.36
2018-12-01T07:20:07.246Z,100595.34
2018-12-01T07:22:34.574Z,100598.16
2018-12-01T07:25:02.071Z,100600.63
2018-12-01T07:27:29.532Z,100591.31
2018-12-01T07:29:58.198Z,100597.98
2018-12-01T07:32:24.336Z,100596.67
2018-12-01T07:34:51.714Z,100598.28
2018-12-01T07:37:19.194Z,100605.63
2018-12-01T07:39:48.642Z,100602.60
2018-12-01T07:42:17.004Z,100594.41
2018-12-01T07:44:45.020Z,100596.28
2018-12-01T07:47:12.560Z,100596.55
2018-12-01T07:49:39.985Z,100603.02
2018-12-01T07:52:07.353Z,100598.77
2018-12-01T07:54:34.807Z,100597.01
2018-12-01T07:57:02.136Z,100599.09
2018-12-01T07:59:30.682Z,100590.85
2018-12-01T08:01:58.046Z,100585.09
2018-12-01T08:04:25.479Z,100592.67
2018-12-01T08:06:52.918Z,100587.83
2018-12-01T08:09:20.303Z,100594.94
2018-12-01T08:11:47.718Z,100593.64
2018-12-01T08:14:15.151Z,100597.98
2018-12-01T08:16:42.649Z,100592.05
2018-12-01T08:19:10.022Z,100590.41
2018-12-01T08:21:37.409Z,100594.67
2018-12-01T08:24:04.945Z,100585.05
2018-12-01T08:26:32.848Z,100591.66
2018-12-01T08:29:00.288Z,100586.77
2018-12-01T08:31:27.655Z,100584.41
2018-12-01T08:33:54.981Z,100579.74
2018-12-01T08:36:22.485Z,100576.09
2018-12-01T08:38:49.806Z,100574.06
2018-12-01T08:41:17.176Z,100578.20
2018-12-01T08:43:45.163Z,100578.05
2018-12-01T08:46:12.091Z,100575.08
2018-12-01T08:48:39.535Z,100568.95
2018-12-01T08:51:06.932Z,100565.52
2018-12-01T08:53:34.265Z,100563.99
2018-12-01T08:56:01.832Z,100567.10
2018-12-01T08:58:29.434Z,100571.97
2018-12-01T09:00:56.949Z,100573.27
2018-12-01T09:03:24.384Z,100568.40
2018-12-01T09:05:52.804Z,100573.66
2018-12-01T09:08:20.237Z,100570.85
2018-12-01T09:10:47.679Z,100574.88
2018-12-01T09:13:15.120Z,100575.30
2018-12-01T09:15:42.453Z,100566.72
2018-12-01T09:18:10.017Z,100574.22
2018-12-01T09:20:37.409Z,100572.47
2018-12-01T09:23:05.257Z,100570.83
2018-12-01T09:25:32.608Z,100566.80
2018-12-01T09:28:00.573Z,100569.34
2018-12-01T09:30:29.453Z,100573.39
2018-12-01T09:32:57.461Z,100576.69
2018-12-01T09:35:24.375Z,100572.08
2018-12-01T09:37:52.047Z,100568.64
2018-12-01T09:40:20.603Z,100572.56
2018-12-01T09:42:48.252Z,100579.63
2018-12-01T09:45:16.669Z,100573.33
2018-12-01T09:47:45.686Z,100568.00
2018-12-01T09:50:14.160Z,100572.95
2018-12-01T09:52:42.295Z,100574.14
2018-12-01T09:55:12.715Z,100568.09
2018-12-01T09:57:41.036Z,100575.05
2018-12-01T10:00:10.454Z,100568.67
2018-12-01T10:02:38.328Z,100564.48
2018-12-01T10:05:07.660Z,100554.02
2018-12-01T10:07:35.178Z,100546.92
2018-12-01T10:10:02.675Z,100551.20
2018-12-01T10:12:30.119Z,100542.81
2018-12-01T10:14:57.501Z,100539.38
2018-12-01T10:17:24.901Z,100544.81
2018-12-01T10:19:52.425Z,100538.50
2018-12-01T10:22:19.766Z,100536.84
2018-12-01T10:24:47.235Z,100529.22
2018-12-01T10:27:15.939Z,100535.09
2018-12-01T10:29:45.041Z,100550.47
2018-12-01T10:32:12.447Z,100541.13
2018-12-01T10:34:39.805Z,100537.17
2018-12-01T10:37:07.196Z,100538.94
2018-12-01T10:39:36.632Z,100535.83
2018-12-01T10:42:04.192Z,100528.81
2018-12-01T10:44:31.721Z,100523.44
2018-12-01T10:46:59.304Z,100532.45
2018-12-01T10:49:26.661Z,100532.06
2018-12-01T10:51:54.033Z,100527.92
2018-12-01T10:54:21.593Z,100529.52
2018-12-01T10:56:49.011Z,100532.81
2018-12-01T10:59:16.391Z,100536.33
2018-12-01T11:02:55.606Z,100534.88
2018-12-01T11:05:20.080Z,100533.64
2018-12-01T11:07:47.458Z,100540.99
2018-12-01T11:10:15.168Z,100537.85
2018-12-01T11:12:43.019Z,100540.39
2018-12-01T11:15:10.533Z,100540.82
2018-12-01T11:17:37.966Z,100537.23
2018-12-01T11:20:08.162Z,100537.05
2018-12-01T11:22:35.698Z,100532.58
2018-12-01T11:25:04.710Z,100529.81
2018-12-01T11:27:32.315Z,100535.66
2018-12-01T11:29:59.672Z,100541.52
2018-12-01T11:32:27.050Z,100545.87
2018-12-01T11:34:54.560Z,100545.17
2018-12-01T11:37:21.874Z,100551.58
2018-12-01T11:39:49.347Z,100553.28
2018-12-01T11:42:16.704Z,100564.13
2018-12-01T11:44:44.905Z,100561.97
2018-12-01T11:47:12.302Z,100551.94
2018-12-01T11:49:40.333Z,100539.08
2018-12-01T11:52:07.776Z,100530.83
2018-12-01T11:54:35.226Z,100535.11
2018-12-01T11:57:02.645Z,100530.84
2018-12-01T11:59:30.128Z,100531.98
2018-12-01T12:02:00.348Z,100523.50
2018-12-01T12:04:25.078Z,100527.29
2018-12-01T12:06:52.487Z,100533.64
2018-12-01T12:09:20.873Z,100525.02
2018-12-01T12:11:48.462Z,100509.84
2018-12-01T12:14:15.915Z,100505.41
2018-12-01T12:16:43.286Z,100508.84
2018-12-01T12:19:10.685Z,100516.14
2018-12-01T12:21:38.061Z,100504.69
2018-12-01T12:24:05.614Z,100509.42
2018-12-01T12:26:33.173Z,100500.73
2018-12-01T12:29:00.515Z,100508.27
2018-12-01T12:31:27.957Z,100510.45
2018-12-01T12:33:55.293Z,100497.86
2018-12-01T12:36:22.700Z,100505.67
2018-12-01T12:38:50.140Z,100503.86
2018-12-01T12:41:17.596Z,100498.75
2018-12-01T12:43:44.977Z,100491.14
2018-12-01T12:46:12.375Z,100468.81
2018-12-01T12:48:39.705Z,100476.41
2018-12-01T12:51:07.511Z,100486.32
2018-12-01T12:53:34.878Z,100486.12
2018-12-01T12:56:02.370Z,100482.91
2018-12-01T12:58:29.882Z,100479.95
2018-12-01T13:00:57.336Z,100477.45
2018-12-01T13:03:24.804Z,100478.45
2018-12-01T13:05:52.302Z,100473.38
2018-12-01T13:08:19.922Z,100476.59
2018-12-01T13:10:47.542Z,100475.31
2018-12-01T13:13:14.940Z,100483.36
2018-12-01T13:15:42.284Z,100477.38
2018-12-01T13:18:11.192Z,100473.63
2018-12-01T13:20:38.936Z,100471.45
2018-12-01T13:23:07.176Z,100479.80
2018-12-01T13:25:34.943Z,100470.58
2018-12-01T13:28:09.764Z,100467.44
2018-12-01T13:30:40.450Z,100464.55
2018-12-01T13:33:07.884Z,100464.45
2018-12-01T13:35:35.387Z,100447.09
2018-12-01T13:38:02.847Z,100457.07
2018-12-01T13:40:31.254Z,100455.45
2018-12-01T13:42:58.689Z,100446.45
2018-12-01T13:45:26.179Z,100449.07
2018-12-01T13:47:53.649Z,100440.77
2018-12-01T13:50:21.361Z,100444.05
2018-12-01T13:52:54.150Z,100440.24
2018-12-01T13:55:21.534Z,100441.38
2018-12-01T13:57:48.961Z,100447.42
2018-12-01T14:00:17.681Z,100457.03
2018-12-01T14:02:45.285Z,100458.94
2018-12-01T14:05:13.015Z,100450.78
2018-12-01T14:07:40.505Z,100451.02
2018-12-01T14:10:16.239Z,100448.56
2018-12-01T14:12:45.164Z,100461.94
2018-12-01T14:15:17.421Z,100454.52
2018-12-01T14:17:44.920Z,100457.24
2018-12-01T14:20:13.520Z,100451.17
2018-12-01T14:22:41.146Z,100457.05
2018-12-01T14:25:09.692Z,100455.66
2018-12-01T14:27:37.640Z,100455.83
2018-12-01T14:30:11.377Z,100445.05
2018-12-01T14:32:38.833Z,100453.89
2018-12-01T14:35:10.546Z,100460.13
2018-12-01T14:37:37.986Z,100461.14
2018-12-01T14:40:07.954Z,100461.44
2018-12-01T14:42:35.344Z,100467.37
2018-12-01T14:45:02.774Z,100462.34
2018-12-01T14:47:30.164Z,100462.73
2018-12-01T14:49:57.520Z,100459.73
2018-12-01T14:52:24.904Z,100458.73
2018-12-01T14:54:52.258Z,100461.41
2018-12-01T14:57:19.628Z,100456.85
2018-12-01T14:59:47.096Z,100449.50
2018-12-01T15:02:14.472Z,100448.81
2018-12-01T15:04:41.850Z,100449.55
2018-12-01T15:07:09.273Z,100452.30
2018-12-01T15:09:37.424Z,100448.68
2018-12-01T15:12:06.301Z,100448.27
2018-12-01T15:14:33.792Z,100443.73
2018-12-01T15:17:01.150Z,100448.99
2018-12-01T15:19:28.723Z,100443.56
2018-12-01T15:21:56.083Z,100449.63
2018-12-01T15:24:23.507Z,100454.16
2018-12-01T15:26:50.968Z,100445.10
2018-12-01T15:29:18.466Z,100448.99
2018-12-01T15:31:46.086Z,100450.27
2018-12-01T15:34:13.444Z,100450.77
2018-12-01T15:36:40.904Z,100447.84
2018-12-01T15:39:10.499Z,100452.77
2018-12-01T15:41:37.982Z,100444.81
2018-12-01T15:44:06.611Z,100452.95
2018-12-01T15:46:34.212Z,100446.67
2018-12-01T15:49:03.172Z,100443.83
2018-12-01T15:51:29.681Z,100433.03
2018-12-01T15:53:57.048Z,100437.43
2018-12-01T15:56:24.555Z,100429.92
2018-12-01T15:58:52.175Z,100421.19
2018-12-01T16:01:19.696Z,100420.06
2018-12-01T16:03:47.415Z,100413.51
2018-12-01T16:06:14.818Z,100408.35
2018-12-01T16:08:42.249Z,100409.68
2018-12-01T16:11:09.668Z,100405.55
2018-12-01T16:13:37.104Z,100403.66
2018-12-01T16:16:07.359Z,100402.84
2018-12-01T16:18:35.421Z,100393.85
2018-12-01T16:21:02.740Z,100390.71
2018-12-01T16:23:30.233Z,100385.72
2018-12-01T16:25:57.699Z,100381.52
2018-12-01T16:28:25.152Z,100382.73
2018-12-01T16:30:52.533Z,100391.52
2018-12-01T16:33:20.613Z,100385.56
2018-12-01T16:35:49.761Z,100386.64
2018-12-01T16:38:19.234Z,100382.96
2018-12-01T16:40:56.249Z,100379.46
2018-12-01T16:43:24.383Z,100378.72
2018-12-01T16:45:52.359Z,100375.80
2018-12-01T16:48:20.176Z,100368.00
2018-12-01T16:50:47.521Z,100364.39
2018-12-01T16:53:16.437Z,100355.76
2018-12-01T16:55:44.104Z,100350.92
2018-12-01T16:58:11.591Z,100343.27
2018-12-01T17:00:39.218Z,100343.88
2018-12-01T17:03:08.479Z,100337.66
2018-12-01T17:05:37.474Z,100335.02
2018-12-01T17:08:05.186Z,100336.41
2018-12-01T17:10:32.696Z,100327.86
2018-12-01T17:13:00.399Z,100321.39
2018-12-01T17:15:27.794Z,100316.98
2018-12-01T17:17:55.278Z,100313.14
2018-12-01T17:20:22.642Z,100310.53
2018-12-01T17:22:54.834Z,100307.30
2018-12-01T17:25:22.278Z,100312.46
2018-12-01T17:27:50.517Z,100312.90
2018-12-01T17:30:19.387Z,100319.83
2018-12-01T17:32:47.874Z,100312.09
2018-12-01T17:35:17.454Z,100313.48
2018-12-01T17:37:46.407Z,100318.00
2018-12-01T17:40:17.463Z,100313.34
2018-12-01T17:42:47.136Z,100310.41
2018-12-01T17:45:14.545Z,100309.31
2018-12-01T17:47:41.927Z,100312.05
2018-12-01T17:50:15.020Z,100317.17
2018-12-01T17:52:49.172Z,100310.02
2018-12-01T17:55:16.923Z,100309.51
2018-12-01T17:57:45.114Z,100301.78
2018-12-01T18:00:16.015Z,100305.49
2018-12-01T18:02:42.514Z,100304.35
2018-12-01T18:05:12.768Z,100298.83
2018-12-01T18:07:40.244Z,100304.48
2018-12-01T18:10:10.378Z,100300.95
2018-12-01T18:12:37.761Z,100310.07
2018-12-01T18:15:09.037Z,100309.13
2018-12-01T18:17:36.468Z,100310.46
2018-12-01T18:20:04.726Z,100307.81
2018-12-01T18:22:32.902Z,100303.20
2018-12-01T18:25:00.455Z,100304.97
2018-12-01T18:27:27.800Z,100308.55
2018-12-01T18:29:55.389Z,100310.63
2018-12-01T18:32:22.767Z,100311.95
2018-12-01T18:34:50.139Z,100310.19
2018-12-01T18:37:18.507Z,100305.56
2018-12-01T18:39:45.888Z,100302.89
2018-12-01T18:42:13.299Z,100304.23
2018-12-01T18:44:44.038Z,100304.11
2018-12-01T18:47:11.617Z,100296.59
2018-12-01T18:49:39.784Z,100297.30
2018-12-01T18:52:07.169Z,100301.88
2018-12-01T18:54:34.611Z,100303.80
2018-12-01T18:57:02.046Z,100291.04
2018-12-01T18:59:29.438Z,100288.89
2018-12-01T19:01:56.802Z,100283.57
2018-12-01T19:04:24.197Z,100271.11
2018-12-01T19:06:51.687Z,100263.52
2018-12-01T19:09:19.083Z,100257.77
2018-12-01T19:11:46.526Z,100253.91
2018-12-01T19:14:13.978Z,100259.33
2018-12-01T19:16:41.392Z,100249.63
2018-12-01T19:19:08.844Z,100251.73
2018-12-01T19:21:36.215Z,100240.13
2018-12-01T19:24:03.731Z,100236.19
2018-12-01T19:26:31.165Z,100241.41
2018-12-01T19:28:58.531Z,100233.78
2018-12-01T19:31:25.960Z,100234.78
2018-12-01T19:33:53.373Z,100226.70
2018-12-01T19:36:20.800Z,100212.51
2018-12-01T19:38:48.201Z,100211.03
2018-12-01T19:41:15.674Z,100216.17
2018-12-01T19:43:43.066Z,100212.52
2018-12-01T19:46:10.453Z,100205.73
2018-12-01T19:48:37.827Z,100205.19
2018-12-01T19:51:05.585Z,100201.09
2018-12-01T19:53:32.992Z,100195.02
2018-12-01T19:56:00.363Z,100207.81
2018-12-01T19:58:28.799Z,100200.47
2018-12-01T20:00:57.316Z,100198.72
2018-12-01T20:03:25.890Z,100199.16
2018-12-01T20:05:53.283Z,100195.40
2018-12-01T20:08:21.110Z,100196.12
2018-12-01T20:10:52.771Z,100192.29
2018-12-01T20:13:27.764Z,100192.84
2018-12-01T20:16:00.315Z,100197.80
2018-12-01T20:18:28.345Z,100189.48
2018-12-01T20:20:55.775Z,100180.31
2018-12-01T20:23:23.164Z,100183.26
2018-12-01T20:25:51.105Z,100176.27
2018-12-01T20:28:18.745Z,100173.41
2018-12-01T20:30:46.816Z,100167.66
2018-12-01T20:33:14.534Z,100165.18
2018-12-01T20:35:45.865Z,100160.95
2018-12-01T20:38:21.115Z,100156.84
2018-12-01T20:40:48.545Z,100152.67
2018-12-01T20:43:16.016Z,100141.63
2018-12-01T20:45:43.507Z,100141.25
2018-12-01T20:48:12.612Z,100142.80
2018-12-01T20:50:40.141Z,100143.06
2018-12-01T20:53:08.010Z,100135.13
2018-12-01T20:55:36.049Z,100124.06
2018-12-01T20:58:05.878Z,100107.95
2018-12-01T21:00:33.454Z,100105.44
2018-12-01T21:03:00.866Z,100097.15
2018-12-01T21:05:28.421Z,100090.49
2018-12-01T21:07:55.813Z,100093.10
2018-12-01T21:10:30.139Z,100077.56
2018-12-01T21:12:59.074Z,100081.90
2018-12-01T21:15:26.473Z,100075.12
2018-12-01T21:17:53.945Z,100066.14
2018-12-01T21:20:21.306Z,100054.30
2018-12-01T21:22:49.919Z,100051.65
2018-12-01T21:32:07.998Z,100049.31
2018-12-01T21:34:35.470Z,100035.89
2018-12-01T21:37:03.096Z,100031.40
2018-12-01T21:39:30.429Z,100044.72
2018-12-01T21:41:57.809Z,100034.34
2018-12-01T21:44:25.192Z,100042.83
2018-12-01T21:46:52.576Z,100032.14
2018-12-01T21:49:19.926Z,100033.26
2018-12-01T21:51:47.387Z,100029.48
2018-12-01T21:54:14.917Z,100038.70
2018-12-01T21:56:42.379Z,100023.72
2018-12-01T21:59:09.795Z,100028.82
2018-12-01T22:01:37.242Z,100025.40
2018-12-01T22:04:04.978Z,100028.69
2018-12-01T22:06:32.507Z,100022.97
2018-12-01T22:08:59.802Z,100016.44
2018-12-01T22:11:27.149Z,100012.16
2018-12-01T22:13:54.430Z,100018.79
2018-12-01T22:16:21.731Z,100011.53
2018-12-01T22:18:48.958Z,99995.49
2018-12-01T22:21:16.231Z,100004.81
2018-12-01T22:23:43.552Z,100000.64
2018-12-01T22:26:10.853Z,99987.36
2018-12-01T22:28:38.162Z,99987.56
2018-12-01T22:31:05.588Z,99978.27
2018-12-01T22:33:32.954Z,99979.95
2018-12-01T22:36:00.293Z,99975.66
2018-12-01T22:38:27.581Z,99964.38
2018-12-01T22:40:54.962Z,99965.50
2018-12-01T22:43:22.909Z,99956.09
2018-12-01T22:45:50.227Z,99953.61
2018-12-01T22:48:19.210Z,99944.97
2018-12-01T22:50:48.133Z,99940.06
2018-12-01T22:53:15.452Z,99945.02
2018-12-01T22:55:43.379Z,99945.41
2018-12-01T22:58:13.333Z,99950.87
2018-12-01T23:00:48.411Z,99952.12
2018-12-01T23:03:15.768Z,99942.16
2018-12-01T23:05:43.227Z,99935.69
2018-12-01T23:08:12.241Z,99918.01
2018-12-01T23:10:39.556Z,99918.55
2018-12-01T23:13:07.288Z,99918.36
2018-12-01T23:15:34.770Z,99918.13
2018-12-01T23:18:02.114Z,99909.87
2018-12-01T23:20:29.414Z,99906.08
2018-12-01T23:22:56.854Z,99908.14
2018-12-01T23:25:24.100Z,99898.31
2018-12-01T23:27:51.520Z,99891.58
2018-12-01T23:30:24.024Z,99893.67
2018-12-01T23:32:55.764Z,99889.70
2018-12-01T23:35:23.170Z,99873.30
2018-12-01T23:37:50.570Z,99879.23
2018-12-01T23:40:17.997Z,99873.53
2018-12-01T23:42:45.351Z,99857.61
2018-12-01T23:45:16.558Z,99856.81
2018-12-01T23:47:44.607Z,99863.06
2018-12-01T23:50:18.454Z,99856.63
2018-12-01T23:52:47.269Z,99852.23
2018-12-01T23:55:14.877Z,99852.36
2018-12-01T23:57:42.514Z,99843.16
